createdAt,value
2023-01-19T00:00:22.550Z,16.27
2023-01-19T00:05:16.261Z,16.98
2023-01-19T00:10:12.907Z,15.68
2023-01-19T00:15:10.350Z,16.22
2023-01-19T00:20:05.502Z,17.05
2023-01-19T00:24:58.930Z,16.92
2023-01-19T00:29:53.340Z,16.30
2023-01-19T00:34:52.421Z,16.05
2023-01-19T00:39:51.231Z,16.91
2023-01-19T00:44:44.558Z,16.28
2023-01-19T00:49:40.503Z,17.08
2023-01-19T00:54:37.468Z,17.09
2023-01-19T00:59:32.419Z,15.99
2023-01-19T01:04:28.642Z,16.44
2023-01-19T01:09:22.321Z,16.08
2023-01-19T01:14:15.737Z,16.71
2023-01-19T01:19:13.042Z,16.20
2023-01-19T01:24:06.702Z,17.17
2023-01-19T01:28:59.927Z,16.54
2023-01-19T01:33:55.841Z,17.19
2023-01-19T01:38:52.277Z,17.06
2023-01-19T01:43:54.437Z,16.22
2023-01-19T01:48:53.325Z,17.34
2023-01-19T01:53:48.772Z,16.45
2023-01-19T01:59:26.334Z,16.23
2023-01-19T02:04:25.647Z,15.86
2023-01-19T02:09:36.290Z,16.64
2023-01-19T02:14:37.478Z,17.07
2023-01-19T02:19:39.180Z,17.27
2023-01-19T02:24:36.715Z,17.23
2023-01-19T02:29:33.295Z,16.21
2023-01-19T02:34:26.629Z,16.09
2023-01-19T02:39:24.249Z,16.43
2023-01-19T02:44:22.496Z,16.57
2023-01-19T02:49:18.489Z,17.13
2023-01-19T02:54:30.508Z,16.68
2023-01-19T02:59:34.537Z,17.20
2023-01-19T03:04:34.926Z,16.05
2023-01-19T03:09:38.604Z,16.64
2023-01-19T03:14:43.981Z,17.32
2023-01-19T03:19:44.525Z,16.56
2023-01-19T03:24:41.346Z,16.07
2023-01-19T03:29:40.979Z,16.70
2023-01-19T03:34:46.372Z,17.02
2023-01-19T03:39:41.065Z,16.58
2023-01-19T03:44:44.295Z,16.09
2023-01-19T03:49:43.178Z,16.94
2023-01-19T03:54:36.658Z,16.98
2023-01-19T03:59:30.132Z,15.92
2023-01-19T04:04:29.650Z,16.62
2023-01-19T04:09:23.136Z,15.68
2023-01-19T04:14:19.382Z,15.69
2023-01-19T04:19:16.294Z,16.55
2023-01-19T04:24:16.944Z,15.41
2023-01-19T04:29:16.052Z,16.26
2023-01-19T04:34:09.424Z,16.89
2023-01-19T04:39:05.220Z,16.40
2023-01-19T04:44:00.133Z,16.85
2023-01-19T04:48:53.551Z,16.77
2023-01-19T04:53:48.724Z,15.68
2023-01-19T04:58:42.055Z,16.86
2023-01-19T05:03:36.897Z,16.68
2023-01-19T05:08:31.213Z,16.86
2023-01-19T05:13:27.096Z,16.47
2023-01-19T05:18:20.472Z,15.84
2023-01-19T05:23:15.638Z,16.56
2023-01-19T05:28:09.231Z,16.30
2023-01-19T05:33:03.230Z,16.31
2023-01-19T05:37:59.647Z,16.47
2023-01-19T05:43:01.875Z,15.36
2023-01-19T05:47:58.511Z,16.39
2023-01-19T05:52:53.389Z,16.45
2023-01-19T05:57:54.507Z,15.78
2023-01-19T06:02:50.380Z,16.12
2023-01-19T06:07:43.804Z,16.33
2023-01-19T06:12:37.626Z,16.29
2023-01-19T06:17:32.865Z,16.05
2023-01-19T06:22:27.428Z,15.97
2023-01-19T06:27:20.775Z,16.23
2023-01-19T06:32:14.005Z,15.74
2023-01-19T06:37:07.194Z,15.43
2023-01-19T06:42:01.786Z,16.22
2023-01-19T06:47:14.602Z,16.25
2023-01-19T06:52:08.347Z,16.13
2023-01-19T06:57:05.726Z,16.17
2023-01-19T07:01:59.176Z,16.42
2023-01-19T07:06:52.493Z,16.50
2023-01-19T07:11:45.594Z,16.66
2023-01-19T07:16:45.817Z,16.44
2023-01-19T07:21:38.796Z,16.90
2023-01-19T07:26:31.927Z,16.80
2023-01-19T07:31:25.273Z,16.99
2023-01-19T07:36:20.082Z,17.08
2023-01-19T07:41:13.345Z,17.14
2023-01-19T07:46:07.875Z,17.27
2023-01-19T07:51:01.935Z,17.37
2023-01-19T07:55:59.756Z,17.59
2023-01-19T08:00:54.058Z,17.47
2023-01-19T08:05:55.128Z,17.92
2023-01-19T08:10:51.280Z,18.04
2023-01-19T08:15:46.639Z,17.82
2023-01-19T08:20:39.845Z,18.29
2023-01-19T08:25:37.974Z,18.28
2023-01-19T08:30:31.429Z,18.66
2023-01-19T08:35:25.996Z,18.94
2023-01-19T08:40:19.887Z,18.93
2023-01-19T08:45:13.365Z,19.10
2023-01-19T08:50:07.352Z,19.39
2023-01-19T08:55:01.965Z,19.52
2023-01-19T08:59:55.155Z,19.43
2023-01-19T09:04:51.954Z,19.04
2023-01-19T09:09:45.259Z,19.72
2023-01-19T09:14:43.074Z,20.23
2023-01-19T09:19:36.417Z,21.19
2023-01-19T09:24:29.610Z,21.87
2023-01-19T09:29:22.861Z,22.58
2023-01-19T09:34:17.537Z,23.46
2023-01-19T09:39:11.374Z,24.05
2023-01-19T09:44:07.696Z,24.43
2023-01-19T09:49:05.177Z,24.64
2023-01-19T09:54:06.196Z,24.38
2023-01-19T09:59:00.666Z,24.26
2023-01-19T10:04:07.080Z,23.95
2023-01-19T10:09:12.187Z,23.54
2023-01-19T10:14:18.325Z,23.15
2023-01-19T10:19:24.223Z,23.49
2023-01-19T10:24:24.957Z,22.61
2023-01-19T10:29:26.936Z,23.65
2023-01-19T10:34:23.371Z,23.64
2023-01-19T10:39:20.071Z,23.72
2023-01-19T10:44:25.405Z,23.28
2023-01-19T10:49:30.123Z,23.67
2023-01-19T10:54:30.713Z,24.11
2023-01-19T10:59:37.493Z,24.28
2023-01-19T11:04:33.369Z,23.80
2023-01-19T11:09:30.680Z,23.64
2023-01-19T11:14:25.627Z,23.84
2023-01-19T11:19:27.914Z,23.67
2023-01-19T11:24:22.172Z,24.14
2023-01-19T11:29:23.266Z,24.21
2023-01-19T11:34:33.203Z,24.12
2023-01-19T11:39:30.447Z,23.93
2023-01-19T11:44:27.585Z,24.01
2023-01-19T11:49:28.847Z,23.73
2023-01-19T11:54:32.439Z,22.62
2023-01-19T11:59:27.359Z,22.58
2023-01-19T12:04:27.747Z,22.47
2023-01-19T12:09:28.567Z,21.78
2023-01-19T12:14:28.388Z,22.35
2023-01-19T12:19:29.102Z,22.39
2023-01-19T12:24:31.645Z,21.78
2023-01-19T12:29:30.445Z,21.47
2023-01-19T12:34:38.132Z,22.39
2023-01-19T12:39:37.326Z,22.33
2023-01-19T12:44:35.350Z,22.19
2023-01-19T12:49:34.257Z,22.13
2023-01-19T12:54:31.770Z,21.93
2023-01-19T12:59:28.118Z,22.07
2023-01-19T13:04:35.063Z,21.99
2023-01-19T13:09:32.055Z,22.07
2023-01-19T13:14:42.959Z,22.07
2023-01-19T13:20:03.867Z,21.15
2023-01-19T13:25:12.977Z,21.36
2023-01-19T13:30:17.083Z,21.22
2023-01-19T13:35:18.686Z,21.32
2023-01-19T13:40:22.843Z,21.66
2023-01-19T13:45:29.318Z,21.55
2023-01-19T13:50:30.939Z,21.12
2023-01-19T13:55:30.118Z,20.75
2023-01-19T14:00:27.703Z,20.99
2023-01-19T14:05:35.661Z,21.22
2023-01-19T14:10:31.345Z,20.43
2023-01-19T14:15:26.575Z,20.75
2023-01-19T14:20:30.765Z,20.80
2023-01-19T14:25:29.407Z,20.98
2023-01-19T14:30:26.305Z,20.57
2023-01-19T14:35:28.454Z,20.74
2023-01-19T14:40:24.635Z,20.60
2023-01-19T14:45:20.617Z,19.52
2023-01-19T14:50:26.722Z,19.57
2023-01-19T14:55:25.249Z,19.78
2023-01-19T15:00:20.316Z,19.57
2023-01-19T15:05:16.826Z,19.09
2023-01-19T15:10:20.941Z,19.24
2023-01-19T15:15:22.252Z,19.12
2023-01-19T15:20:22.472Z,19.14
2023-01-19T15:25:20.007Z,18.53
2023-01-19T15:30:19.449Z,18.69
2023-01-19T15:35:19.527Z,19.49
2023-01-19T15:40:13.935Z,19.43
2023-01-19T15:45:32.155Z,19.19
2023-01-19T15:50:27.392Z,18.29
2023-01-19T15:55:22.240Z,19.10
2023-01-19T16:00:22.636Z,18.39
2023-01-19T16:05:16.348Z,18.89
2023-01-19T16:10:24.512Z,18.83
2023-01-19T16:15:19.475Z,17.86
2023-01-19T16:20:14.863Z,18.30
2023-01-19T16:25:08.889Z,18.40
2023-01-19T16:30:05.109Z,18.45
2023-01-19T16:35:02.376Z,18.82
2023-01-19T16:39:55.798Z,18.77
2023-01-19T16:44:49.259Z,17.93
2023-01-19T16:49:42.589Z,18.09
2023-01-19T16:54:39.364Z,17.90
2023-01-19T16:59:33.668Z,18.52
2023-01-19T17:04:32.191Z,18.35
2023-01-19T17:09:25.699Z,18.22
2023-01-19T17:14:21.603Z,17.33
2023-01-19T17:19:16.801Z,18.30
2023-01-19T17:24:10.933Z,18.27
2023-01-19T17:29:06.693Z,17.39
2023-01-19T17:34:01.844Z,17.28
2023-01-19T17:38:59.091Z,17.69
2023-01-19T17:43:52.852Z,17.81
2023-01-19T17:48:46.911Z,17.46
2023-01-19T17:53:42.628Z,18.02
2023-01-19T17:58:38.813Z,17.18
2023-01-19T18:03:34.153Z,17.99
2023-01-19T18:08:27.419Z,17.97
2023-01-19T18:13:22.109Z,17.79
2023-01-19T18:18:16.032Z,17.95
2023-01-19T18:23:09.520Z,17.90
2023-01-19T18:28:02.898Z,17.77
2023-01-19T18:32:57.726Z,17.41
2023-01-19T18:37:52.383Z,17.22
2023-01-19T18:42:58.582Z,17.71
2023-01-19T18:48:01.051Z,17.71
2023-01-19T18:52:54.640Z,17.31
2023-01-19T18:57:48.084Z,17.67
2023-01-19T19:02:41.617Z,17.18
2023-01-19T19:07:40.685Z,17.01
2023-01-19T19:12:35.381Z,16.98
2023-01-19T19:17:28.984Z,17.31
2023-01-19T19:22:25.450Z,17.36
2023-01-19T19:27:20.594Z,16.82
2023-01-19T19:32:21.506Z,17.28
2023-01-19T19:37:21.418Z,16.83
2023-01-19T19:42:15.093Z,17.35
2023-01-19T19:47:12.854Z,16.88
2023-01-19T19:52:07.448Z,16.14
2023-01-19T19:57:03.938Z,16.87
2023-01-19T20:01:57.181Z,16.02
2023-01-19T20:06:51.844Z,16.15
2023-01-19T20:11:46.937Z,16.15
2023-01-19T20:16:40.787Z,16.07
2023-01-19T20:21:37.986Z,15.31
2023-01-19T20:26:36.069Z,15.44
2023-01-19T20:31:32.125Z,15.21
2023-01-19T20:36:26.877Z,14.32
2023-01-19T20:41:21.676Z,13.95
2023-01-19T20:46:16.790Z,14.23
2023-01-19T20:51:13.702Z,13.91
2023-01-19T20:56:12.550Z,13.48
2023-01-19T21:01:11.931Z,13.21
2023-01-19T21:06:07.239Z,13.65
2023-01-19T21:11:00.732Z,13.57
2023-01-19T21:15:54.062Z,12.80
2023-01-19T21:20:48.940Z,13.28
2023-01-19T21:25:51.002Z,13.39
2023-01-19T21:30:44.344Z,13.15
2023-01-19T21:35:37.599Z,13.35
2023-01-19T21:40:30.873Z,13.36
2023-01-19T21:45:25.510Z,13.40
2023-01-19T21:50:19.622Z,13.37
2023-01-19T21:55:14.795Z,13.42
2023-01-19T22:00:10.346Z,13.40
2023-01-19T22:05:06.688Z,13.29
2023-01-19T22:10:00.035Z,13.36
2023-01-19T22:14:53.587Z,13.03
2023-01-19T22:19:46.825Z,13.16
2023-01-19T22:24:46.581Z,12.96
2023-01-19T22:29:39.920Z,12.93
2023-01-19T22:34:33.082Z,12.83
2023-01-19T22:39:26.440Z,12.70
2023-01-19T22:44:22.626Z,12.51
2023-01-19T22:49:18.032Z,12.32
2023-01-19T22:54:11.651Z,12.48
2023-01-19T22:59:06.283Z,12.15
2023-01-19T23:04:01.568Z,12.15
2023-01-19T23:08:56.641Z,12.27
2023-01-19T23:13:50.893Z,11.98
2023-01-19T23:18:45.103Z,11.87
2023-01-19T23:23:39.722Z,11.88
2023-01-19T23:28:34.217Z,11.83
2023-01-19T23:33:28.757Z,11.73
2023-01-19T23:38:22.635Z,11.62
2023-01-19T23:43:18.912Z,11.26
2023-01-19T23:48:12.098Z,11.29
2023-01-19T23:53:05.399Z,11.40
2023-01-19T23:57:58.719Z,11.22
